メインページ
METAR-TAF:

METAR-TAF

空港 :

ボンリキ国際空港

タラワ, キリバス

緯度: 01-21N, 経度: 172-55E, 海抜: 2m

現時点の気象観測

当レポートは52分前の06:00(UTC)に作成
の風 4kt
気温 30°C
湿度 62%
気圧 1009 hPa
視程10km以上
高度2000ftの雲は散在している
高度10000ftの千切れ雲あり

METAR: NGTA 150600Z 09004KT 9999 SCT020 BKN100 30/22 Q1009

時間: 20:52 (06:52 UTC)

予報

当レポートは1時間36分前の05:16(UTC)に作成
予報は15日の 06時(UTC)から 16日の 06時(UTC)まで有効
東/南東の風 7kt
視程10km以上
高度2000ftの雲はほとんどない
高度10000ftの千切れ雲あり

TAF: NGTA 150516Z 1506/1606 11007KT 9999 FEW020 BKN100

4,000以上の空港の気象観測と天気予報(METAR報とTAF報)

利用可能な観測所は地図上に黄色い丸と赤い丸で示す。

丸の上にカーソルを重ねると観測所名を参照できる。

次にクリックすると気象観測と天気予報を参照できる。

マップの切り替え:黒色「×」印の緑ボタンをクリックして拡大、「-」印の緑ボタンをクリックして縮小、緑色の三角印をクリックして隣りの地図に切り替え


METAR-TAF: